Pagina principale
METAR-TAF:

METAR-TAF

Aeroporti :

Aeroporto di Spalato-Castelli

Spalato, Croazia

latitudine: 43-32N, longitudine: 016-18E, altezza: 19 m

Osservazione

Il bollettino è stato emesso 33 minuti fa, alle 23:30 UTC
Vento 3 kt da nord/nord-ovest, variando fra nord-ovest e nord
Temperature 15°C
Umidità 88%
Pressione 1011 hPa
Visibilità 10 km o più

METAR: LDSP 152330Z AUTO 34003KT 310V010 9999 BKN038/// OVC061/// 15/13 Q1011

Ora: 02:03 (00:03 UTC)

Previsione

Il bollettino è stato emesso 38 minuti fa, alle 23:25 UTC
Previsione valida dal 16 alle 00 UTC al 17 alle 00 UTC
Vento 2 kt da direzioni variabili
Visibilità 10 km o più
nessuna nube inferiore a 1500 m e nessun cumulonembo

TAF: LDSP 152325Z 1600/1700 VRB02KT CAVOK TX20/1613Z TN14/1602Z

Osservazioni e previsioni meteorologiche di più di 4000 aeroporti (messaggi METAR e TAF).

Le stazioni disponibili sono rappresentate dai dischi gialli e rossi sulla carta.

Puntare il mouse per vedere il nome della stazione.

Clicca sopra per visualizzare le osservazioni e previsioni meteorologiche.

Per cambiare la mappa : fare clic sui pulsanti verdi con una croce nera per ingrandire, il pulsante verde con un trattino per diminuire, o sulla freccia verde per le mappe adiacenti.


METAR-TAF: